sensor_id;sensor_type;location;lat;lon;timestamp;P1;durP1;ratioP1;P2;durP2;ratioP2
16506;SDS011;8366;51.020;7.642;2023-02-15T00:00:15;22.97;;;12.73;;
16506;SDS011;8366;51.020;7.642;2023-02-15T00:02:41;23.50;;;12.83;;
16506;SDS011;8366;51.020;7.642;2023-02-15T00:05:08;23.67;;;13.00;;
16506;SDS011;8366;51.020;7.642;2023-02-15T00:07:34;24.17;;;14.07;;
16506;SDS011;8366;51.020;7.642;2023-02-15T00:10:01;24.47;;;12.53;;
16506;SDS011;8366;51.020;7.642;2023-02-15T00:12:27;23.30;;;12.93;;
16506;SDS011;8366;51.020;7.642;2023-02-15T00:14:54;24.73;;;13.37;;
16506;SDS011;8366;51.020;7.642;2023-02-15T00:17:21;23.83;;;13.03;;
16506;SDS011;8366;51.020;7.642;2023-02-15T00:19:48;23.37;;;13.33;;
16506;SDS011;8366;51.020;7.642;2023-02-15T00:22:15;21.53;;;12.43;;
16506;SDS011;8366;51.020;7.642;2023-02-15T00:24:41;25.30;;;13.47;;
16506;SDS011;8366;51.020;7.642;2023-02-15T00:27:07;24.13;;;12.33;;
16506;SDS011;8366;51.020;7.642;2023-02-15T00:29:35;21.03;;;11.97;;
16506;SDS011;8366;51.020;7.642;2023-02-15T00:32:01;25.30;;;12.90;;
16506;SDS011;8366;51.020;7.642;2023-02-15T00:34:29;20.83;;;11.80;;
16506;SDS011;8366;51.020;7.642;2023-02-15T00:36:55;21.73;;;12.40;;
16506;SDS011;8366;51.020;7.642;2023-02-15T00:39:22;21.50;;;12.60;;
16506;SDS011;8366;51.020;7.642;2023-02-15T00:41:49;25.13;;;12.47;;
16506;SDS011;8366;51.020;7.642;2023-02-15T00:44:16;20.33;;;11.70;;
16506;SDS011;8366;51.020;7.642;2023-02-15T00:46:42;24.03;;;12.70;;
16506;SDS011;8366;51.020;7.642;2023-02-15T00:49:09;21.37;;;12.53;;
16506;SDS011;8366;51.020;7.642;2023-02-15T00:51:37;23.17;;;12.40;;
16506;SDS011;8366;51.020;7.642;2023-02-15T00:54:04;21.17;;;12.17;;
16506;SDS011;8366;51.020;7.642;2023-02-15T00:56:30;25.87;;;12.63;;
16506;SDS011;8366;51.020;7.642;2023-02-15T00:58:57;21.43;;;12.17;;
16506;SDS011;8366;51.020;7.642;2023-02-15T01:01:23;23.60;;;11.67;;
16506;SDS011;8366;51.020;7.642;2023-02-15T01:03:50;22.77;;;12.97;;
16506;SDS011;8366;51.020;7.642;2023-02-15T01:06:17;20.33;;;11.63;;
16506;SDS011;8366;51.020;7.642;2023-02-15T01:08:45;21.07;;;12.07;;
16506;SDS011;8366;51.020;7.642;2023-02-15T01:11:12;21.70;;;12.40;;
16506;SDS011;8366;51.020;7.642;2023-02-15T01:13:46;22.70;;;11.50;;
16506;SDS011;8366;51.020;7.642;2023-02-15T01:16:13;22.43;;;12.17;;
16506;SDS011;8366;51.020;7.642;2023-02-15T01:18:40;21.50;;;12.20;;
16506;SDS011;8366;51.020;7.642;2023-02-15T01:21:10;24.00;;;13.00;;
16506;SDS011;8366;51.020;7.642;2023-02-15T01:23:38;24.73;;;13.47;;
16506;SDS011;8366;51.020;7.642;2023-02-15T01:26:06;24.63;;;13.17;;
16506;SDS011;8366;51.020;7.642;2023-02-15T01:28:33;24.27;;;12.97;;
16506;SDS011;8366;51.020;7.642;2023-02-15T01:31:04;22.90;;;12.00;;
16506;SDS011;8366;51.020;7.642;2023-02-15T01:33:31;23.03;;;12.47;;
16506;SDS011;8366;51.020;7.642;2023-02-15T01:35:57;22.13;;;12.47;;
16506;SDS011;8366;51.020;7.642;2023-02-15T01:38:24;23.97;;;12.17;;
16506;SDS011;8366;51.020;7.642;2023-02-15T01:40:50;24.77;;;13.03;;
16506;SDS011;8366;51.020;7.642;2023-02-15T01:43:18;24.33;;;12.97;;
16506;SDS011;8366;51.020;7.642;2023-02-15T01:45:45;24.07;;;12.73;;
16506;SDS011;8366;51.020;7.642;2023-02-15T01:48:17;22.10;;;13.23;;
16506;SDS011;8366;51.020;7.642;2023-02-15T01:50:47;26.00;;;13.67;;
16506;SDS011;8366;51.020;7.642;2023-02-15T01:53:17;22.67;;;13.33;;
16506;SDS011;8366;51.020;7.642;2023-02-15T01:55:48;24.20;;;13.30;;
16506;SDS011;8366;51.020;7.642;2023-02-15T01:58:16;26.20;;;13.23;;
16506;SDS011;8366;51.020;7.642;2023-02-15T02:00:45;26.30;;;13.20;;
16506;SDS011;8366;51.020;7.642;2023-02-15T02:03:11;26.07;;;13.23;;
16506;SDS011;8366;51.020;7.642;2023-02-15T02:05:38;26.93;;;13.43;;
16506;SDS011;8366;51.020;7.642;2023-02-15T02:08:05;23.87;;;12.93;;
16506;SDS011;8366;51.020;7.642;2023-02-15T02:10:33;23.80;;;12.83;;
16506;SDS011;8366;51.020;7.642;2023-02-15T02:13:01;25.70;;;13.07;;
16506;SDS011;8366;51.020;7.642;2023-02-15T02:15:32;23.27;;;12.70;;
16506;SDS011;8366;51.020;7.642;2023-02-15T02:18:07;26.07;;;12.40;;
16506;SDS011;8366;51.020;7.642;2023-02-15T02:20:43;22.90;;;12.80;;
16506;SDS011;8366;51.020;7.642;2023-02-15T02:23:20;23.97;;;12.53;;
16506;SDS011;8366;51.020;7.642;2023-02-15T02:26:04;22.57;;;12.60;;
16506;SDS011;8366;51.020;7.642;2023-02-15T02:35:15;21.10;;;11.37;;
16506;SDS011;8366;51.020;7.642;2023-02-15T02:37:54;22.00;;;12.10;;
16506;SDS011;8366;51.020;7.642;2023-02-15T02:40:29;19.87;;;12.10;;
16506;SDS011;8366;51.020;7.642;2023-02-15T02:43:08;22.77;;;11.80;;
16506;SDS011;8366;51.020;7.642;2023-02-15T02:45:39;25.47;;;12.43;;
16506;SDS011;8366;51.020;7.642;2023-02-15T02:48:08;25.03;;;12.73;;
16506;SDS011;8366;51.020;7.642;2023-02-15T02:50:38;22.73;;;12.30;;
16506;SDS011;8366;51.020;7.642;2023-02-15T02:53:05;22.13;;;12.07;;
16506;SDS011;8366;51.020;7.642;2023-02-15T02:55:33;26.20;;;12.90;;
16506;SDS011;8366;51.020;7.642;2023-02-15T02:58:03;23.53;;;12.23;;
16506;SDS011;8366;51.020;7.642;2023-02-15T03:00:32;23.00;;;12.17;;
16506;SDS011;8366;51.020;7.642;2023-02-15T03:03:02;23.20;;;12.67;;
16506;SDS011;8366;51.020;7.642;2023-02-15T03:05:30;25.00;;;12.57;;
16506;SDS011;8366;51.020;7.642;2023-02-15T03:07:58;22.93;;;11.73;;
16506;SDS011;8366;51.020;7.642;2023-02-15T03:10:30;23.93;;;12.57;;
16506;SDS011;8366;51.020;7.642;2023-02-15T03:12:57;24.67;;;12.47;;
16506;SDS011;8366;51.020;7.642;2023-02-15T03:15:25;23.83;;;12.37;;
16506;SDS011;8366;51.020;7.642;2023-02-15T03:18:14;22.00;;;12.10;;
16506;SDS011;8366;51.020;7.642;2023-02-15T03:20:43;20.43;;;12.23;;
16506;SDS011;8366;51.020;7.642;2023-02-15T03:23:12;21.73;;;12.17;;
16506;SDS011;8366;51.020;7.642;2023-02-15T03:25:40;25.10;;;12.33;;
16506;SDS011;8366;51.020;7.642;2023-02-15T03:28:08;25.27;;;12.87;;
16506;SDS011;8366;51.020;7.642;2023-02-15T03:30:36;21.10;;;12.47;;
16506;SDS011;8366;51.020;7.642;2023-02-15T03:33:04;23.47;;;12.77;;
16506;SDS011;8366;51.020;7.642;2023-02-15T03:35:33;26.33;;;14.07;;
16506;SDS011;8366;51.020;7.642;2023-02-15T03:38:03;24.77;;;13.03;;
16506;SDS011;8366;51.020;7.642;2023-02-15T03:40:34;25.33;;;12.70;;
16506;SDS011;8366;51.020;7.642;2023-02-15T03:43:22;22.03;;;11.80;;
16506;SDS011;8366;51.020;7.642;2023-02-15T03:45:52;22.87;;;12.33;;
16506;SDS011;8366;51.020;7.642;2023-02-15T03:48:22;21.87;;;13.10;;
16506;SDS011;8366;51.020;7.642;2023-02-15T03:50:50;22.73;;;12.07;;
16506;SDS011;8366;51.020;7.642;2023-02-15T03:53:35;26.67;;;12.40;;
16506;SDS011;8366;51.020;7.642;2023-02-15T03:56:04;23.13;;;12.07;;
16506;SDS011;8366;51.020;7.642;2023-02-15T03:58:31;25.00;;;13.17;;
16506;SDS011;8366;51.020;7.642;2023-02-15T04:01:17;26.47;;;13.03;;
16506;SDS011;8366;51.020;7.642;2023-02-15T04:04:08;21.63;;;12.50;;
16506;SDS011;8366;51.020;7.642;2023-02-15T04:06:38;26.03;;;13.53;;
16506;SDS011;8366;51.020;7.642;2023-02-15T04:09:04;20.37;;;12.10;;
16506;SDS011;8366;51.020;7.642;2023-02-15T04:11:50;24.53;;;12.80;;
16506;SDS011;8366;51.020;7.642;2023-02-15T04:14:16;24.03;;;12.53;;
16506;SDS011;8366;51.020;7.642;2023-02-15T04:16:56;26.00;;;13.67;;
16506;SDS011;8366;51.020;7.642;2023-02-15T04:19:23;23.37;;;12.73;;
16506;SDS011;8366;51.020;7.642;2023-02-15T04:22:07;23.23;;;12.17;;
16506;SDS011;8366;51.020;7.642;2023-02-15T04:24:51;20.93;;;12.37;;
16506;SDS011;8366;51.020;7.642;2023-02-15T04:27:37;21.30;;;11.57;;
16506;SDS011;8366;51.020;7.642;2023-02-15T04:30:04;25.10;;;12.80;;
16506;SDS011;8366;51.020;7.642;2023-02-15T04:32:32;23.37;;;11.37;;
16506;SDS011;8366;51.020;7.642;2023-02-15T04:34:59;24.13;;;12.20;;
16506;SDS011;8366;51.020;7.642;2023-02-15T04:37:25;23.70;;;13.07;;
16506;SDS011;8366;51.020;7.642;2023-02-15T04:39:52;23.97;;;11.50;;
16506;SDS011;8366;51.020;7.642;2023-02-15T04:42:18;20.13;;;11.23;;
16506;SDS011;8366;51.020;7.642;2023-02-15T04:44:46;23.40;;;12.20;;
16506;SDS011;8366;51.020;7.642;2023-02-15T04:47:12;21.97;;;10.93;;
16506;SDS011;8366;51.020;7.642;2023-02-15T04:49:39;21.90;;;12.50;;
16506;SDS011;8366;51.020;7.642;2023-02-15T04:52:05;23.67;;;11.77;;
16506;SDS011;8366;51.020;7.642;2023-02-15T04:54:32;23.23;;;12.50;;
16506;SDS011;8366;51.020;7.642;2023-02-15T04:56:58;26.57;;;12.97;;
16506;SDS011;8366;51.020;7.642;2023-02-15T04:59:24;23.53;;;12.80;;
16506;SDS011;8366;51.020;7.642;2023-02-15T05:01:52;24.17;;;12.30;;
16506;SDS011;8366;51.020;7.642;2023-02-15T05:04:19;22.93;;;11.87;;
16506;SDS011;8366;51.020;7.642;2023-02-15T05:06:46;22.83;;;11.63;;
16506;SDS011;8366;51.020;7.642;2023-02-15T05:09:12;23.97;;;12.13;;
16506;SDS011;8366;51.020;7.642;2023-02-15T05:11:39;24.57;;;12.63;;
16506;SDS011;8366;51.020;7.642;2023-02-15T05:14:06;22.33;;;11.43;;
16506;SDS011;8366;51.020;7.642;2023-02-15T05:16:32;21.87;;;11.70;;
16506;SDS011;8366;51.020;7.642;2023-02-15T05:19:00;21.37;;;10.90;;
16506;SDS011;8366;51.020;7.642;2023-02-15T05:21:27;22.50;;;11.80;;
16506;SDS011;8366;51.020;7.642;2023-02-15T05:23:53;21.57;;;11.30;;
16506;SDS011;8366;51.020;7.642;2023-02-15T05:26:20;24.13;;;12.57;;
16506;SDS011;8366;51.020;7.642;2023-02-15T05:29:05;23.27;;;12.50;;
16506;SDS011;8366;51.020;7.642;2023-02-15T05:31:32;22.43;;;12.27;;
16506;SDS011;8366;51.020;7.642;2023-02-15T05:34:01;22.13;;;11.90;;
16506;SDS011;8366;51.020;7.642;2023-02-15T05:36:28;22.60;;;12.53;;
16506;SDS011;8366;51.020;7.642;2023-02-15T05:38:54;20.90;;;11.63;;
16506;SDS011;8366;51.020;7.642;2023-02-15T05:41:21;23.27;;;12.57;;
16506;SDS011;8366;51.020;7.642;2023-02-15T05:43:47;22.23;;;11.23;;
16506;SDS011;8366;51.020;7.642;2023-02-15T05:46:14;22.50;;;12.30;;
16506;SDS011;8366;51.020;7.642;2023-02-15T05:48:40;24.33;;;11.77;;
16506;SDS011;8366;51.020;7.642;2023-02-15T05:51:09;23.77;;;13.13;;
16506;SDS011;8366;51.020;7.642;2023-02-15T05:53:38;22.13;;;11.77;;
16506;SDS011;8366;51.020;7.642;2023-02-15T05:56:05;22.47;;;12.33;;
16506;SDS011;8366;51.020;7.642;2023-02-15T05:58:34;25.67;;;12.80;;
16506;SDS011;8366;51.020;7.642;2023-02-15T06:01:06;22.33;;;11.90;;
16506;SDS011;8366;51.020;7.642;2023-02-15T06:03:34;24.33;;;13.33;;
16506;SDS011;8366;51.020;7.642;2023-02-15T06:06:00;22.83;;;12.93;;
16506;SDS011;8366;51.020;7.642;2023-02-15T06:08:30;26.37;;;13.87;;
16506;SDS011;8366;51.020;7.642;2023-02-15T06:10:57;23.70;;;13.13;;
16506;SDS011;8366;51.020;7.642;2023-02-15T06:13:23;22.50;;;12.13;;
16506;SDS011;8366;51.020;7.642;2023-02-15T06:15:50;25.13;;;13.17;;
16506;SDS011;8366;51.020;7.642;2023-02-15T06:18:16;26.53;;;13.47;;
16506;SDS011;8366;51.020;7.642;2023-02-15T06:20:44;23.57;;;13.23;;
16506;SDS011;8366;51.020;7.642;2023-02-15T06:23:11;25.67;;;13.40;;
16506;SDS011;8366;51.020;7.642;2023-02-15T06:25:39;23.77;;;12.63;;
16506;SDS011;8366;51.020;7.642;2023-02-15T06:28:06;29.47;;;14.87;;
16506;SDS011;8366;51.020;7.642;2023-02-15T06:30:32;27.80;;;14.73;;
16506;SDS011;8366;51.020;7.642;2023-02-15T06:32:59;29.33;;;14.53;;
16506;SDS011;8366;51.020;7.642;2023-02-15T06:35:25;26.27;;;13.03;;
16506;SDS011;8366;51.020;7.642;2023-02-15T06:37:52;30.20;;;14.10;;
16506;SDS011;8366;51.020;7.642;2023-02-15T06:40:18;24.03;;;13.27;;
16506;SDS011;8366;51.020;7.642;2023-02-15T06:42:46;25.33;;;12.77;;
16506;SDS011;8366;51.020;7.642;2023-02-15T06:45:13;27.27;;;13.37;;
16506;SDS011;8366;51.020;7.642;2023-02-15T06:47:39;25.03;;;13.20;;
16506;SDS011;8366;51.020;7.642;2023-02-15T06:50:06;24.53;;;13.53;;
16506;SDS011;8366;51.020;7.642;2023-02-15T06:52:34;22.37;;;12.07;;
16506;SDS011;8366;51.020;7.642;2023-02-15T06:55:00;25.00;;;13.67;;
16506;SDS011;8366;51.020;7.642;2023-02-15T06:57:27;25.53;;;13.00;;
16506;SDS011;8366;51.020;7.642;2023-02-15T06:59:55;22.10;;;12.47;;
16506;SDS011;8366;51.020;7.642;2023-02-15T07:02:23;25.33;;;14.03;;
16506;SDS011;8366;51.020;7.642;2023-02-15T07:04:49;23.77;;;13.13;;
16506;SDS011;8366;51.020;7.642;2023-02-15T07:07:16;23.67;;;13.70;;
16506;SDS011;8366;51.020;7.642;2023-02-15T07:09:42;26.37;;;13.07;;
16506;SDS011;8366;51.020;7.642;2023-02-15T07:12:09;26.63;;;13.73;;
16506;SDS011;8366;51.020;7.642;2023-02-15T07:14:53;27.00;;;13.53;;
16506;SDS011;8366;51.020;7.642;2023-02-15T07:17:20;23.03;;;13.10;;
16506;SDS011;8366;51.020;7.642;2023-02-15T07:19:47;29.17;;;13.87;;
16506;SDS011;8366;51.020;7.642;2023-02-15T07:22:13;29.10;;;13.13;;
16506;SDS011;8366;51.020;7.642;2023-02-15T07:24:40;24.80;;;12.90;;
16506;SDS011;8366;51.020;7.642;2023-02-15T07:27:06;26.57;;;13.63;;
16506;SDS011;8366;51.020;7.642;2023-02-15T07:29:33;24.00;;;13.43;;
16506;SDS011;8366;51.020;7.642;2023-02-15T07:32:01;23.80;;;13.50;;
16506;SDS011;8366;51.020;7.642;2023-02-15T07:34:27;21.93;;;12.53;;
16506;SDS011;8366;51.020;7.642;2023-02-15T07:36:54;25.90;;;13.20;;
16506;SDS011;8366;51.020;7.642;2023-02-15T07:39:20;26.47;;;12.60;;
16506;SDS011;8366;51.020;7.642;2023-02-15T07:41:47;27.43;;;13.37;;
16506;SDS011;8366;51.020;7.642;2023-02-15T07:44:14;27.47;;;13.67;;
16506;SDS011;8366;51.020;7.642;2023-02-15T07:46:41;27.03;;;13.60;;
16506;SDS011;8366;51.020;7.642;2023-02-15T07:49:09;29.33;;;16.17;;
16506;SDS011;8366;51.020;7.642;2023-02-15T07:51:35;25.20;;;14.03;;
16506;SDS011;8366;51.020;7.642;2023-02-15T07:54:02;29.27;;;13.67;;
16506;SDS011;8366;51.020;7.642;2023-02-15T07:56:28;28.43;;;14.40;;
16506;SDS011;8366;51.020;7.642;2023-02-15T07:58:55;27.43;;;13.87;;
16506;SDS011;8366;51.020;7.642;2023-02-15T08:01:23;24.33;;;13.90;;
16506;SDS011;8366;51.020;7.642;2023-02-15T08:03:51;27.73;;;13.73;;
16506;SDS011;8366;51.020;7.642;2023-02-15T08:06:20;28.23;;;13.93;;
16506;SDS011;8366;51.020;7.642;2023-02-15T08:08:47;27.03;;;14.43;;
16506;SDS011;8366;51.020;7.642;2023-02-15T08:11:15;25.40;;;14.07;;
16506;SDS011;8366;51.020;7.642;2023-02-15T08:13:55;28.60;;;14.73;;
16506;SDS011;8366;51.020;7.642;2023-02-15T08:16:25;25.97;;;14.00;;
16506;SDS011;8366;51.020;7.642;2023-02-15T08:18:53;25.73;;;15.00;;
16506;SDS011;8366;51.020;7.642;2023-02-15T08:21:21;26.43;;;14.03;;
16506;SDS011;8366;51.020;7.642;2023-02-15T08:23:48;27.30;;;14.67;;
16506;SDS011;8366;51.020;7.642;2023-02-15T08:26:15;30.67;;;14.97;;
16506;SDS011;8366;51.020;7.642;2023-02-15T08:28:41;27.77;;;15.13;;
16506;SDS011;8366;51.020;7.642;2023-02-15T08:31:09;27.30;;;15.30;;
16506;SDS011;8366;51.020;7.642;2023-02-15T08:33:38;28.67;;;15.23;;
16506;SDS011;8366;51.020;7.642;2023-02-15T08:36:06;28.27;;;15.87;;
16506;SDS011;8366;51.020;7.642;2023-02-15T08:38:36;28.13;;;15.37;;
16506;SDS011;8366;51.020;7.642;2023-02-15T08:41:10;31.93;;;15.67;;
16506;SDS011;8366;51.020;7.642;2023-02-15T08:43:37;27.83;;;15.20;;
16506;SDS011;8366;51.020;7.642;2023-02-15T08:46:04;29.70;;;15.07;;
16506;SDS011;8366;51.020;7.642;2023-02-15T08:48:31;25.50;;;14.17;;
16506;SDS011;8366;51.020;7.642;2023-02-15T08:50:58;26.47;;;15.00;;
16506;SDS011;8366;51.020;7.642;2023-02-15T08:53:25;30.63;;;15.00;;
16506;SDS011;8366;51.020;7.642;2023-02-15T08:55:56;27.53;;;15.13;;
16506;SDS011;8366;51.020;7.642;2023-02-15T08:58:23;28.80;;;14.57;;
16506;SDS011;8366;51.020;7.642;2023-02-15T09:00:50;29.53;;;16.33;;
16506;SDS011;8366;51.020;7.642;2023-02-15T09:03:16;26.83;;;15.37;;
16506;SDS011;8366;51.020;7.642;2023-02-15T09:05:43;26.17;;;14.77;;
16506;SDS011;8366;51.020;7.642;2023-02-15T09:08:09;26.77;;;14.93;;
16506;SDS011;8366;51.020;7.642;2023-02-15T09:10:38;28.77;;;15.23;;
16506;SDS011;8366;51.020;7.642;2023-02-15T09:13:06;26.13;;;15.33;;
16506;SDS011;8366;51.020;7.642;2023-02-15T09:15:32;23.83;;;14.57;;
16506;SDS011;8366;51.020;7.642;2023-02-15T09:17:59;28.67;;;14.23;;
16506;SDS011;8366;51.020;7.642;2023-02-15T09:20:30;24.07;;;14.30;;
16506;SDS011;8366;51.020;7.642;2023-02-15T09:22:57;26.13;;;14.63;;
16506;SDS011;8366;51.020;7.642;2023-02-15T09:25:24;19.90;;;13.07;;
16506;SDS011;8366;51.020;7.642;2023-02-15T09:27:51;21.83;;;13.50;;
16506;SDS011;8366;51.020;7.642;2023-02-15T09:30:19;19.70;;;11.50;;
16506;SDS011;8366;51.020;7.642;2023-02-15T09:32:46;21.50;;;12.13;;
16506;SDS011;8366;51.020;7.642;2023-02-15T09:35:13;18.87;;;10.63;;
16506;SDS011;8366;51.020;7.642;2023-02-15T09:37:39;18.00;;;10.23;;
16506;SDS011;8366;51.020;7.642;2023-02-15T09:40:06;17.33;;;10.33;;
16506;SDS011;8366;51.020;7.642;2023-02-15T09:42:40;18.27;;;10.40;;
16506;SDS011;8366;51.020;7.642;2023-02-15T09:45:25;17.50;;;10.27;;
16506;SDS011;8366;51.020;7.642;2023-02-15T09:48:01;16.20;;;9.67;;
16506;SDS011;8366;51.020;7.642;2023-02-15T09:50:38;17.63;;;10.20;;
16506;SDS011;8366;51.020;7.642;2023-02-15T09:56:02;17.10;;;10.67;;
16506;SDS011;8366;51.020;7.642;2023-02-15T09:58:35;14.23;;;9.43;;
16506;SDS011;8366;51.020;7.642;2023-02-15T10:01:09;15.30;;;9.40;;
16506;SDS011;8366;51.020;7.642;2023-02-15T10:03:47;16.60;;;9.60;;
16506;SDS011;8366;51.020;7.642;2023-02-15T10:06:24;15.47;;;9.70;;
16506;SDS011;8366;51.020;7.642;2023-02-15T10:09:00;16.23;;;9.47;;
16506;SDS011;8366;51.020;7.642;2023-02-15T10:11:32;14.07;;;8.83;;
16506;SDS011;8366;51.020;7.642;2023-02-15T10:14:13;16.47;;;9.80;;
16506;SDS011;8366;51.020;7.642;2023-02-15T10:16:48;15.33;;;8.47;;
16506;SDS011;8366;51.020;7.642;2023-02-15T10:19:23;13.33;;;8.43;;
16506;SDS011;8366;51.020;7.642;2023-02-15T10:21:56;13.53;;;8.37;;
16506;SDS011;8366;51.020;7.642;2023-02-15T10:24:39;14.40;;;8.80;;
16506;SDS011;8366;51.020;7.642;2023-02-15T10:27:15;15.67;;;8.30;;
16506;SDS011;8366;51.020;7.642;2023-02-15T10:29:47;15.83;;;8.80;;
16506;SDS011;8366;51.020;7.642;2023-02-15T10:32:23;15.50;;;8.67;;
16506;SDS011;8366;51.020;7.642;2023-02-15T10:34:51;11.93;;;7.73;;
16506;SDS011;8366;51.020;7.642;2023-02-15T10:37:23;13.10;;;7.57;;
16506;SDS011;8366;51.020;7.642;2023-02-15T10:40:05;12.30;;;8.20;;
16506;SDS011;8366;51.020;7.642;2023-02-15T10:42:38;14.53;;;7.77;;
16506;SDS011;8366;51.020;7.642;2023-02-15T10:45:15;14.93;;;7.83;;
16506;SDS011;8366;51.020;7.642;2023-02-15T10:48:01;11.03;;;7.47;;
16506;SDS011;8366;51.020;7.642;2023-02-15T10:50:40;15.07;;;8.10;;
16506;SDS011;8366;51.020;7.642;2023-02-15T10:56:06;13.57;;;8.23;;
16506;SDS011;8366;51.020;7.642;2023-02-15T10:58:42;13.00;;;8.40;;
16506;SDS011;8366;51.020;7.642;2023-02-15T11:01:23;13.20;;;7.60;;
16506;SDS011;8366;51.020;7.642;2023-02-15T11:04:01;11.03;;;7.40;;
16506;SDS011;8366;51.020;7.642;2023-02-15T11:06:34;12.93;;;7.77;;
16506;SDS011;8366;51.020;7.642;2023-02-15T11:09:03;14.17;;;8.43;;
16506;SDS011;8366;51.020;7.642;2023-02-15T11:11:32;13.97;;;8.33;;
16506;SDS011;8366;51.020;7.642;2023-02-15T11:14:02;11.97;;;7.77;;
16506;SDS011;8366;51.020;7.642;2023-02-15T11:16:31;12.90;;;7.90;;
16506;SDS011;8366;51.020;7.642;2023-02-15T11:19:01;13.90;;;7.37;;
16506;SDS011;8366;51.020;7.642;2023-02-15T11:21:33;12.83;;;7.57;;
16506;SDS011;8366;51.020;7.642;2023-02-15T11:24:07;12.67;;;8.63;;
16506;SDS011;8366;51.020;7.642;2023-02-15T11:26:37;13.07;;;8.77;;
16506;SDS011;8366;51.020;7.642;2023-02-15T11:29:06;13.47;;;8.13;;
16506;SDS011;8366;51.020;7.642;2023-02-15T11:31:39;13.17;;;8.20;;
16506;SDS011;8366;51.020;7.642;2023-02-15T11:34:12;12.37;;;8.13;;
16506;SDS011;8366;51.020;7.642;2023-02-15T11:36:43;15.63;;;8.50;;
16506;SDS011;8366;51.020;7.642;2023-02-15T11:39:12;13.80;;;7.97;;
16506;SDS011;8366;51.020;7.642;2023-02-15T11:41:44;15.27;;;8.77;;
16506;SDS011;8366;51.020;7.642;2023-02-15T11:44:17;12.90;;;7.60;;
16506;SDS011;8366;51.020;7.642;2023-02-15T11:46:47;13.87;;;8.63;;
16506;SDS011;8366;51.020;7.642;2023-02-15T11:49:19;12.10;;;7.77;;
16506;SDS011;8366;51.020;7.642;2023-02-15T11:51:48;13.30;;;8.47;;
16506;SDS011;8366;51.020;7.642;2023-02-15T11:54:16;12.23;;;8.10;;
16506;SDS011;8366;51.020;7.642;2023-02-15T11:56:44;13.23;;;8.10;;
16506;SDS011;8366;51.020;7.642;2023-02-15T11:59:11;14.80;;;8.50;;
16506;SDS011;8366;51.020;7.642;2023-02-15T12:01:40;14.07;;;8.73;;
16506;SDS011;8366;51.020;7.642;2023-02-15T12:04:12;12.20;;;7.73;;
16506;SDS011;8366;51.020;7.642;2023-02-15T12:06:45;11.73;;;8.13;;
16506;SDS011;8366;51.020;7.642;2023-02-15T12:09:16;14.57;;;8.40;;
16506;SDS011;8366;51.020;7.642;2023-02-15T12:11:46;12.23;;;7.80;;
16506;SDS011;8366;51.020;7.642;2023-02-15T12:14:13;11.93;;;7.83;;
16506;SDS011;8366;51.020;7.642;2023-02-15T12:16:42;14.30;;;8.23;;
16506;SDS011;8366;51.020;7.642;2023-02-15T12:19:13;12.50;;;8.23;;
16506;SDS011;8366;51.020;7.642;2023-02-15T12:21:51;13.43;;;8.30;;
16506;SDS011;8366;51.020;7.642;2023-02-15T12:24:19;13.37;;;8.47;;
16506;SDS011;8366;51.020;7.642;2023-02-15T12:26:55;13.47;;;8.17;;
16506;SDS011;8366;51.020;7.642;2023-02-15T12:29:24;12.97;;;8.37;;
16506;SDS011;8366;51.020;7.642;2023-02-15T12:31:53;15.27;;;8.67;;
16506;SDS011;8366;51.020;7.642;2023-02-15T12:34:22;14.63;;;7.83;;
16506;SDS011;8366;51.020;7.642;2023-02-15T12:36:51;13.23;;;8.13;;
16506;SDS011;8366;51.020;7.642;2023-02-15T12:39:23;14.30;;;7.87;;
16506;SDS011;8366;51.020;7.642;2023-02-15T12:41:59;14.03;;;8.17;;
16506;SDS011;8366;51.020;7.642;2023-02-15T12:44:29;13.63;;;8.27;;
16506;SDS011;8366;51.020;7.642;2023-02-15T12:46:57;13.23;;;8.23;;
16506;SDS011;8366;51.020;7.642;2023-02-15T12:49:26;15.50;;;9.00;;
16506;SDS011;8366;51.020;7.642;2023-02-15T12:51:54;14.63;;;8.27;;
16506;SDS011;8366;51.020;7.642;2023-02-15T12:54:27;12.93;;;8.10;;
16506;SDS011;8366;51.020;7.642;2023-02-15T12:56:56;14.33;;;8.30;;
16506;SDS011;8366;51.020;7.642;2023-02-15T12:59:23;12.70;;;7.73;;
16506;SDS011;8366;51.020;7.642;2023-02-15T13:01:50;11.93;;;8.07;;
16506;SDS011;8366;51.020;7.642;2023-02-15T13:04:20;12.70;;;7.87;;
16506;SDS011;8366;51.020;7.642;2023-02-15T13:06:51;13.73;;;7.90;;
16506;SDS011;8366;51.020;7.642;2023-02-15T13:09:20;12.70;;;8.50;;
16506;SDS011;8366;51.020;7.642;2023-02-15T13:11:47;13.03;;;8.13;;
16506;SDS011;8366;51.020;7.642;2023-02-15T13:14:16;12.40;;;7.87;;
16506;SDS011;8366;51.020;7.642;2023-02-15T13:16:45;11.20;;;7.83;;
16506;SDS011;8366;51.020;7.642;2023-02-15T13:19:14;11.57;;;7.60;;
16506;SDS011;8366;51.020;7.642;2023-02-15T13:21:43;16.27;;;8.47;;
16506;SDS011;8366;51.020;7.642;2023-02-15T13:24:15;13.53;;;8.10;;
16506;SDS011;8366;51.020;7.642;2023-02-15T13:26:44;12.90;;;7.70;;
16506;SDS011;8366;51.020;7.642;2023-02-15T13:29:14;12.40;;;7.90;;
16506;SDS011;8366;51.020;7.642;2023-02-15T13:31:45;14.67;;;8.03;;
16506;SDS011;8366;51.020;7.642;2023-02-15T13:34:14;14.30;;;8.57;;
16506;SDS011;8366;51.020;7.642;2023-02-15T13:36:46;13.73;;;8.17;;
16506;SDS011;8366;51.020;7.642;2023-02-15T13:39:20;13.03;;;7.90;;
16506;SDS011;8366;51.020;7.642;2023-02-15T13:41:52;13.87;;;7.97;;
16506;SDS011;8366;51.020;7.642;2023-02-15T13:44:29;13.73;;;8.10;;
16506;SDS011;8366;51.020;7.642;2023-02-15T13:47:09;12.13;;;7.77;;
16506;SDS011;8366;51.020;7.642;2023-02-15T13:49:44;14.97;;;8.50;;
16506;SDS011;8366;51.020;7.642;2023-02-15T13:52:19;12.13;;;8.10;;
16506;SDS011;8366;51.020;7.642;2023-02-15T13:57:57;12.87;;;7.60;;
16506;SDS011;8366;51.020;7.642;2023-02-15T14:00:44;14.10;;;8.37;;
16506;SDS011;8366;51.020;7.642;2023-02-15T14:03:26;12.67;;;8.03;;
16506;SDS011;8366;51.020;7.642;2023-02-15T14:06:09;14.10;;;7.77;;
16506;SDS011;8366;51.020;7.642;2023-02-15T14:08:46;11.73;;;7.87;;
16506;SDS011;8366;51.020;7.642;2023-02-15T14:11:22;12.37;;;8.03;;
16506;SDS011;8366;51.020;7.642;2023-02-15T14:14:00;14.20;;;8.10;;
16506;SDS011;8366;51.020;7.642;2023-02-15T14:16:40;12.10;;;8.03;;
16506;SDS011;8366;51.020;7.642;2023-02-15T14:19:13;13.60;;;8.77;;
16506;SDS011;8366;51.020;7.642;2023-02-15T14:21:45;12.00;;;7.70;;
16506;SDS011;8366;51.020;7.642;2023-02-15T14:24:17;13.33;;;8.13;;
16506;SDS011;8366;51.020;7.642;2023-02-15T14:26:49;13.63;;;8.07;;
16506;SDS011;8366;51.020;7.642;2023-02-15T14:29:23;12.93;;;7.63;;
16506;SDS011;8366;51.020;7.642;2023-02-15T14:31:55;12.67;;;8.10;;
16506;SDS011;8366;51.020;7.642;2023-02-15T14:34:24;14.90;;;8.60;;
16506;SDS011;8366;51.020;7.642;2023-02-15T14:36:53;15.60;;;9.13;;
16506;SDS011;8366;51.020;7.642;2023-02-15T14:39:24;15.17;;;9.23;;
16506;SDS011;8366;51.020;7.642;2023-02-15T14:42:14;13.90;;;8.53;;
16506;SDS011;8366;51.020;7.642;2023-02-15T14:44:47;14.90;;;8.20;;
16506;SDS011;8366;51.020;7.642;2023-02-15T14:47:16;16.47;;;9.00;;
16506;SDS011;8366;51.020;7.642;2023-02-15T14:49:45;13.63;;;8.63;;
16506;SDS011;8366;51.020;7.642;2023-02-15T14:52:11;14.27;;;8.33;;
16506;SDS011;8366;51.020;7.642;2023-02-15T14:54:54;12.70;;;7.83;;
16506;SDS011;8366;51.020;7.642;2023-02-15T14:57:23;13.53;;;8.47;;
16506;SDS011;8366;51.020;7.642;2023-02-15T14:59:59;17.47;;;9.40;;
16506;SDS011;8366;51.020;7.642;2023-02-15T15:02:39;14.37;;;9.27;;
16506;SDS011;8366;51.020;7.642;2023-02-15T15:05:09;15.90;;;8.93;;
16506;SDS011;8366;51.020;7.642;2023-02-15T15:07:38;14.20;;;8.77;;
16506;SDS011;8366;51.020;7.642;2023-02-15T15:19:03;12.93;;;8.03;;